Time;durP1;ratioP1;P1;durP2;ratioP2;P2;SDS_P1;SDS_P2;PMS_P1;PMS_P2;Temp;Humidity;BMP_temperature;BMP_pressure;BME280_temperature;BME280_humidity;BME280_pressure;Samples;Min_cycle;Max_cycle;Signal;HPM_P1;HPM_P2
2022/04/08 00:02:20;;;;;;;;;;;;;;;;;;5093326;28;19927;-71
2022/04/08 00:04:46;;;;;;;;;;;;;;;;;;5093749;28;19930;-72
2022/04/08 00:07:12;;;;;;;;;;;;;;;;;;5092263;28;19908;-72
2022/04/08 00:09:38;;;;;;;;;;;;;;;;;;5092219;28;19916;-72
2022/04/08 00:12:04;;;;;;;;;;;;;;;;;;5093570;28;19908;-73
2022/04/08 00:14:30;;;;;;;;;;;;;;;;;;5093567;28;19923;-72
2022/04/08 00:16:56;;;;;;;;;;;;;;;;;;5093442;28;19999;-72
2022/04/08 00:19:21;;;;;;;;;;;;;;;;;;5093560;28;19916;-72
2022/04/08 00:21:48;;;;;;;;;;;;;;;;;;5093306;28;19908;-72
2022/04/08 00:24:14;;;;;;;;;;;;;;;;;;5093279;28;20420;-72
2022/04/08 00:26:42;;;;;;;;;;;;;;;;;;5093110;28;19912;-73
2022/04/08 00:29:07;;;;;;;;;;;;;;;;;;5091631;28;19916;-72
2022/04/08 00:31:33;;;;;;;;;;;;;;;;;;5091692;28;19908;-72
2022/04/08 00:33:59;;;;;;;;;;;;;;;;;;5091624;28;20261;-72
2022/04/08 00:36:25;;;;;;;;;;;;;;;;;;5091683;28;20390;-72
2022/04/08 00:38:51;;;;;;;;;;;;;;;;;;5091521;28;19908;-72
2022/04/08 00:41:17;;;;;;;;;;;;;;;;;;5092868;28;20381;-72
2022/04/08 00:43:43;;;;;;;;;;;;;;;;;;5091678;28;19957;-72
2022/04/08 00:46:09;;;;;;;;;;;;;;;;;;5092838;28;19920;-72
2022/04/08 00:48:36;;;;;;;;;;;;;;;;;;5091213;28;20326;-72
2022/04/08 00:51:02;;;;;;;;;;;;;;;;;;5091401;28;20027;-72
2022/04/08 00:53:28;;;;;;;;;;;;;;;;;;5092631;28;19936;-72
2022/04/08 00:55:54;;;;;;;;;;;;;;;;;;5093150;28;20006;-72
2022/04/08 00:58:20;;;;;;;;;;;;;;;;;;5091155;28;19955;-73
2022/04/08 01:00:46;;;;;;;;;;;;;;;;;;5091419;28;19923;-73
2022/04/08 01:03:12;;;;;;;;;;;;;;;;;;5092039;28;20112;-72
2022/04/08 01:05:38;;;;;;;;;;;;;;;;;;5092979;28;19917;-72
2022/04/08 01:08:06;;;;;;;;;;;;;;;;;;5092369;28;19916;-71
2022/04/08 01:10:32;;;;;;;;;;;;;;;;;;5092717;28;20011;-72
2022/04/08 01:12:58;;;;;;;;;;;;;;;;;;5092316;28;19908;-71
2022/04/08 01:15:25;;;;;;;;;;;;;;;;;;5092491;28;19961;-71
2022/04/08 01:17:51;;;;;;;;;;;;;;;;;;5090976;28;20402;-71
2022/04/08 01:20:17;;;;;;;;;;;;;;;;;;5092382;28;20003;-72
2022/04/08 01:22:43;;;;;;;;;;;;;;;;;;5092083;28;19908;-71
2022/04/08 01:25:09;;;;;;;;;;;;;;;;;;5090822;28;19920;-72
2022/04/08 01:27:35;;;;;;;;;;;;;;;;;;5092077;28;19908;-72
2022/04/08 01:30:01;;;;;;;;;;;;;;;;;;5092153;28;20015;-73
2022/04/08 01:32:27;;;;;;;;;;;;;;;;;;5091943;28;19918;-72
2022/04/08 01:34:53;;;;;;;;;;;;;;;;;;5092104;28;20309;-73
2022/04/08 01:37:19;;;;;;;;;;;;;;;;;;5090519;28;20356;-72
2022/04/08 01:39:45;;;;;;;;;;;;;;;;;;5090481;28;19962;-73
2022/04/08 01:42:11;;;;;;;;;;;;;;;;;;5091870;28;19916;-72
2022/04/08 01:44:36;;;;;;;;;;;;;;;;;;5090377;28;19967;-72
2022/04/08 01:47:02;;;;;;;;;;;;;;;;;;5090362;28;19908;-71
2022/04/08 01:49:28;;;;;;;;;;;;;;;;;;5091838;28;20259;-72
2022/04/08 01:51:54;;;;;;;;;;;;;;;;;;5091840;28;19957;-72
2022/04/08 01:54:20;;;;;;;;;;;;;;;;;;5090005;28;20343;-71
2022/04/08 01:56:46;;;;;;;;;;;;;;;;;;5091775;28;20002;-71
2022/04/08 01:59:12;;;;;;;;;;;;;;;;;;5091684;28;20454;-72
2022/04/08 02:01:38;;;;;;;;;;;;;;;;;;5091604;28;20285;-72
2022/04/08 02:04:04;;;;;;;;;;;;;;;;;;5091618;28;20390;-71
2022/04/08 02:06:32;;;;;;;;;;;;;;;;;;5091137;28;21904;-71
2022/04/08 02:08:58;;;;;;;;;;;;;;;;;;5090165;28;19913;-71
2022/04/08 02:11:24;;;;;;;;;;;;;;;;;;5090160;28;19912;-71
2022/04/08 02:13:50;;;;;;;;;;;;;;;;;;5090092;28;19908;-71
2022/04/08 02:16:18;;;;;;;;;;;;;;;;;;5091423;28;19913;-71
2022/04/08 02:18:44;;;;;;;;;;;;;;;;;;5090129;28;20620;-70
2022/04/08 02:21:10;;;;;;;;;;;;;;;;;;5091405;28;19912;-71
2022/04/08 02:23:36;;;;;;;;;;;;;;;;;;5089854;28;19919;-71
2022/04/08 02:26:02;;;;;;;;;;;;;;;;;;5091311;28;19965;-72
2022/04/08 02:28:27;;;;;;;;;;;;;;;;;;5090031;28;20315;-71
2022/04/08 02:30:55;;;;;;;;;;;;;;;;;;5089636;28;19912;-70
2022/04/08 02:33:21;;;;;;;;;;;;;;;;;;5080052;28;20386;-72
2022/04/08 02:35:47;;;;;;;;;;;;;;;;;;5071507;28;20014;-71
2022/04/08 02:38:13;;;;;;;;;;;;;;;;;;5071044;28;19928;-71
2022/04/08 02:40:39;;;;;;;;;;;;;;;;;;5069782;28;19908;-71
2022/04/08 02:43:05;;;;;;;;;;;;;;;;;;5071027;28;19924;-71
2022/04/08 02:45:31;;;;;;;;;;;;;;;;;;5070783;28;20356;-71
2022/04/08 02:47:57;;;;;;;;;;;;;;;;;;5071033;28;19928;-71
2022/04/08 02:50:23;;;;;;;;;;;;;;;;;;5071219;28;19908;-71
2022/04/08 02:52:49;;;;;;;;;;;;;;;;;;5069818;28;20318;-71
2022/04/08 02:55:15;;;;;;;;;;;;;;;;;;5071161;28;19912;-71
2022/04/08 02:57:45;;;;;;;;;;;;;;;;;;5070965;28;20348;-71
2022/04/08 03:00:11;;;;;;;;;;;;;;;;;;5070721;28;19954;-71
2022/04/08 03:02:36;;;;;;;;;;;;;;;;;;5070594;28;20389;-71
2022/04/08 03:05:06;;;;;;;;;;;;;;;;;;5071071;28;19965;-71
2022/04/08 03:07:32;;;;;;;;;;;;;;;;;;5073966;28;19913;-71
2022/04/08 03:09:58;;;;;;;;;;;;;;;;;;5074717;28;19936;-70
2022/04/08 03:12:23;;;;;;;;;;;;;;;;;;5074468;28;19920;-71
2022/04/08 03:14:49;;;;;;;;;;;;;;;;;;5073185;28;19920;-72
2022/04/08 03:17:15;;;;;;;;;;;;;;;;;;5073008;28;20011;-72
2022/04/08 03:19:41;;;;;;;;;;;;;;;;;;5074709;28;19913;-72
2022/04/08 03:22:07;;;;;;;;;;;;;;;;;;5074140;28;19927;-71
2022/04/08 03:24:33;;;;;;;;;;;;;;;;;;5074361;28;19920;-71
2022/04/08 03:26:59;;;;;;;;;;;;;;;;;;5074165;28;20011;-72
2022/04/08 03:29:25;;;;;;;;;;;;;;;;;;5073050;28;20264;-72
2022/04/08 03:31:51;;;;;;;;;;;;;;;;;;5074100;28;19912;-72
2022/04/08 03:34:16;;;;;;;;;;;;;;;;;;5072730;28;19921;-70
2022/04/08 03:36:44;;;;;;;;;;;;;;;;;;5073957;28;19913;-71
2022/04/08 03:39:11;;;;;;;;;;;;;;;;;;5072522;28;19947;-71
2022/04/08 03:41:37;;;;;;;;;;;;;;;;;;5073907;28;20031;-72
2022/04/08 03:44:03;;;;;;;;;;;;;;;;;;5073820;28;20332;-71
2022/04/08 03:46:29;;;;;;;;;;;;;;;;;;5072376;28;19919;-70
2022/04/08 03:48:55;;;;;;;;;;;;;;;;;;5072468;28;19912;-71
2022/04/08 03:51:21;;;;;;;;;;;;;;;;;;5073714;28;20011;-71
2022/04/08 03:53:46;;;;;;;;;;;;;;;;;;5073773;28;19908;-71
2022/04/08 03:56:12;;;;;;;;;;;;;;;;;;5072345;28;19913;-71
2022/04/08 03:58:38;;;;;;;;;;;;;;;;;;5073646;28;19913;-71
2022/04/08 04:01:04;;;;;;;;;;;;;;;;;;5073639;28;19912;-71
2022/04/08 04:03:30;;;;;;;;;;;;;;;;;;5073261;28;20378;-72
2022/04/08 04:05:56;;;;;;;;;;;;;;;;;;5072351;28;20005;-71
2022/04/08 04:08:22;;;;;;;;;;;;;;;;;;5072399;28;20275;-71
2022/04/08 04:10:48;;;;;;;;;;;;;;;;;;5071965;28;20307;-71
2022/04/08 04:13:14;;;;;;;;;;;;;;;;;;5072022;28;19916;-71
2022/04/08 04:15:40;;;;;;;;;;;;;;;;;;5073771;28;20380;-72
2022/04/08 04:18:06;;;;;;;;;;;;;;;;;;5072991;28;20372;-71
2022/04/08 04:20:32;;;;;;;;;;;;;;;;;;5072048;28;19948;-71
2022/04/08 04:22:57;;;;;;;;;;;;;;;;;;5072993;28;20011;-72
2022/04/08 04:25:23;;;;;;;;;;;;;;;;;;5071741;28;19915;-72
2022/04/08 04:27:49;;;;;;;;;;;;;;;;;;5072974;28;19920;-71
2022/04/08 04:30:15;;;;;;;;;;;;;;;;;;5073297;28;19909;-70
2022/04/08 04:32:41;;;;;;;;;;;;;;;;;;5072903;28;19917;-70
2022/04/08 04:35:07;;;;;;;;;;;;;;;;;;5073264;28;19956;-71
2022/04/08 04:37:33;;;;;;;;;;;;;;;;;;5071429;28;19924;-72
2022/04/08 04:40:00;;;;;;;;;;;;;;;;;;5072771;28;19968;-71
2022/04/08 04:42:27;;;;;;;;;;;;;;;;;;5072745;28;20368;-72
2022/04/08 04:44:53;;;;;;;;;;;;;;;;;;5073069;28;20425;-72
2022/04/08 04:47:19;;;;;;;;;;;;;;;;;;5071301;28;20050;-71
2022/04/08 04:49:45;;;;;;;;;;;;;;;;;;5072852;28;19909;-72
2022/04/08 04:52:11;;;;;;;;;;;;;;;;;;5071125;28;19920;-71
2022/04/08 04:54:37;;;;;;;;;;;;;;;;;;5072722;28;19912;-71
2022/04/08 04:57:03;;;;;;;;;;;;;;;;;;5072569;28;19939;-71
2022/04/08 04:59:29;;;;;;;;;;;;;;;;;;5072273;28;20532;-71
2022/04/08 05:01:55;;;;;;;;;;;;;;;;;;5072028;28;19922;-72
2022/04/08 05:04:21;;;;;;;;;;;;;;;;;;5072384;28;19943;-70
2022/04/08 05:06:47;;;;;;;;;;;;;;;;;;5072289;28;19912;-71
2022/04/08 05:09:13;;;;;;;;;;;;;;;;;;5070683;28;19916;-73
2022/04/08 05:11:39;;;;;;;;;;;;;;;;;;5072171;28;20337;-71
2022/04/08 05:14:04;;;;;;;;;;;;;;;;;;5072095;28;19913;-71
2022/04/08 05:16:30;;;;;;;;;;;;;;;;;;5072034;28;20436;-71
2022/04/08 05:18:56;;;;;;;;;;;;;;;;;;5070571;28;19917;-71
2022/04/08 05:21:22;;;;;;;;;;;;;;;;;;5070568;28;19990;-72
2022/04/08 05:23:48;;;;;;;;;;;;;;;;;;5071978;28;19913;-71
2022/04/08 05:26:14;;;;;;;;;;;;;;;;;;5071859;28;19966;-71
2022/04/08 05:28:40;;;;;;;;;;;;;;;;;;5069874;28;19915;-71
2022/04/08 05:31:06;;;;;;;;;;;;;;;;;;5071856;28;20361;-72
2022/04/08 05:33:32;;;;;;;;;;;;;;;;;;5071880;28;19911;-71
2022/04/08 05:35:58;;;;;;;;;;;;;;;;;;5070666;28;19939;-71
2022/04/08 05:38:24;;;;;;;;;;;;;;;;;;5071976;28;19908;-71
2022/04/08 05:40:50;;;;;;;;;;;;;;;;;;5072381;28;19923;-72
2022/04/08 05:43:16;;;;;;;;;;;;;;;;;;5071580;28;19916;-71
2022/04/08 05:45:42;;;;;;;;;;;;;;;;;;5072092;28;20349;-72
2022/04/08 05:48:08;;;;;;;;;;;;;;;;;;5071769;28;19969;-72
2022/04/08 05:50:33;;;;;;;;;;;;;;;;;;5070426;28;19974;-72
2022/04/08 05:52:59;;;;;;;;;;;;;;;;;;5071556;28;20374;-72
2022/04/08 05:55:25;;;;;;;;;;;;;;;;;;5071899;28;19917;-72
2022/04/08 05:57:56;;;;;;;;;;;;;;;;;;5071623;28;19920;-71
2022/04/08 06:00:22;;;;;;;;;;;;;;;;;;5071905;28;19980;-72
2022/04/08 06:02:48;;;;;;;;;;;;;;;;;;5069702;28;20261;-71
2022/04/08 06:05:20;;;;;;;;;;;;;;;;;;5070031;28;19912;-71
2022/04/08 06:07:46;;;;;;;;;;;;;;;;;;5071350;28;20003;-72
2022/04/08 06:10:12;;;;;;;;;;;;;;;;;;5071763;28;20395;-72
2022/04/08 06:12:38;;;;;;;;;;;;;;;;;;5071452;28;19995;-72
2022/04/08 06:15:06;;;;;;;;;;;;;;;;;;5071610;28;20241;-71
2022/04/08 06:17:32;;;;;;;;;;;;;;;;;;5070178;28;19913;-72
2022/04/08 06:19:58;;;;;;;;;;;;;;;;;;5069978;28;20276;-72
2022/04/08 06:22:24;;;;;;;;;;;;;;;;;;5069997;28;19912;-73
2022/04/08 06:24:50;;;;;;;;;;;;;;;;;;5071314;28;20017;-72
2022/04/08 06:27:16;;;;;;;;;;;;;;;;;;5071529;28;19917;-72
2022/04/08 06:29:41;;;;;;;;;;;;;;;;;;5071122;28;19920;-71
2022/04/08 06:32:07;;;;;;;;;;;;;;;;;;5069920;28;19940;-71
2022/04/08 06:34:33;;;;;;;;;;;;;;;;;;5071465;28;19912;-72
2022/04/08 06:36:59;;;;;;;;;;;;;;;;;;5070057;28;20004;-72
2022/04/08 06:39:25;;;;;;;;;;;;;;;;;;5071491;28;19930;-73
2022/04/08 06:41:51;;;;;;;;;;;;;;;;;;5075092;28;19912;-72
2022/04/08 06:44:17;;;;;;;;;;;;;;;;;;5075071;28;19921;-73
2022/04/08 06:46:43;;;;;;;;;;;;;;;;;;5074939;28;19975;-72
2022/04/08 06:49:09;;;;;;;;;;;;;;;;;;5074768;28;20380;-72
2022/04/08 06:51:34;;;;;;;;;;;;;;;;;;5073544;28;19923;-73
2022/04/08 06:54:00;;;;;;;;;;;;;;;;;;5075128;28;20444;-72
2022/04/08 06:56:28;;;;;;;;;;;;;;;;;;5073443;28;20003;-72
2022/04/08 06:58:54;;;;;;;;;;;;;;;;;;5074664;28;20289;-72
2022/04/08 07:01:20;;;;;;;;;;;;;;;;;;5073692;28;19961;-72
2022/04/08 07:03:46;;;;;;;;;;;;;;;;;;5074606;28;19977;-72
2022/04/08 07:06:12;;;;;;;;;;;;;;;;;;5074639;28;20261;-72
2022/04/08 07:08:38;;;;;;;;;;;;;;;;;;5074435;28;19912;-71
2022/04/08 07:11:03;;;;;;;;;;;;;;;;;;5074610;28;19916;-71
2022/04/08 07:13:29;;;;;;;;;;;;;;;;;;5074438;28;19904;-72
2022/04/08 07:15:55;;;;;;;;;;;;;;;;;;5074812;28;19915;-72
2022/04/08 07:18:21;;;;;;;;;;;;;;;;;;5074084;28;19960;-73
2022/04/08 07:20:47;;;;;;;;;;;;;;;;;;5074713;28;19912;-73
2022/04/08 07:23:13;;;;;;;;;;;;;;;;;;5074254;28;20331;-73
2022/04/08 07:25:39;;;;;;;;;;;;;;;;;;5074557;28;19913;-73
2022/04/08 07:28:05;;;;;;;;;;;;;;;;;;5074351;28;20319;-73
2022/04/08 07:30:31;;;;;;;;;;;;;;;;;;5074014;28;19944;-73
2022/04/08 07:32:59;;;;;;;;;;;;;;;;;;5074279;28;20388;-73
2022/04/08 07:35:33;;;;;;;;;;;;;;;;;;5074484;28;19909;-72
2022/04/08 07:38:00;;;;;;;;;;;;;;;;;;5074124;28;19921;-73
2022/04/08 07:40:26;;;;;;;;;;;;;;;;;;5072618;28;19909;-72
2022/04/08 07:42:52;;;;;;;;;;;;;;;;;;5072496;28;19923;-72
2022/04/08 07:45:18;;;;;;;;;;;;;;;;;;5072791;28;19968;-72
2022/04/08 07:47:44;;;;;;;;;;;;;;;;;;5074197;28;19924;-73
2022/04/08 07:50:10;;;;;;;;;;;;;;;;;;5073908;28;19919;-73
2022/04/08 07:52:36;;;;;;;;;;;;;;;;;;5073148;28;20027;-72
2022/04/08 07:55:02;;;;;;;;;;;;;;;;;;5073873;28;19932;-73
2022/04/08 07:57:28;;;;;;;;;;;;;;;;;;5072034;28;19920;-72
2022/04/08 07:59:54;;;;;;;;;;;;;;;;;;5072138;28;19909;-73
2022/04/08 08:02:19;;;;;;;;;;;;;;;;;;5073268;28;19970;-72
2022/04/08 08:07:30;;;;;;;;;;;;;;;;;;5073390;28;19924;-72
2022/04/08 08:09:56;;;;;;;;;;;;;;;;;;5073541;28;19913;-72
2022/04/08 08:12:22;;;;;;;;;;;;;;;;;;5073260;28;19977;-72
2022/04/08 08:14:48;;;;;;;;;;;;;;;;;;5073377;28;19916;-73
2022/04/08 08:17:14;;;;;;;;;;;;;;;;;;5073287;28;20372;-72
2022/04/08 08:19:40;;;;;;;;;;;;;;;;;;5073425;28;19912;-72
2022/04/08 08:22:05;;;;;;;;;;;;;;;;;;5073581;28;19913;-73
2022/04/08 08:24:31;;;;;;;;;;;;;;;;;;5073329;28;19917;-72
2022/04/08 08:26:57;;;;;;;;;;;;;;;;;;5072971;28;20304;-73
2022/04/08 08:29:23;;;;;;;;;;;;;;;;;;5073157;28;20022;-73
2022/04/08 08:31:49;;;;;;;;;;;;;;;;;;5072804;28;19913;-72
2022/04/08 08:34:15;;;;;;;;;;;;;;;;;;5071567;28;19912;-73
2022/04/08 08:36:41;;;;;;;;;;;;;;;;;;5072762;28;19923;-74
2022/04/08 08:39:07;;;;;;;;;;;;;;;;;;5072686;28;19913;-73
2022/04/08 08:41:34;;;;;;;;;;;;;;;;;;5071129;28;19913;-73
2022/04/08 08:44:00;;;;;;;;;;;;;;;;;;5072697;28;19917;-74
2022/04/08 08:46:26;;;;;;;;;;;;;;;;;;5072524;28;19918;-75
2022/04/08 08:48:52;;;;;;;;;;;;;;;;;;5071389;28;19908;-72
2022/04/08 08:51:17;;;;;;;;;;;;;;;;;;5072443;28;20439;-73
2022/04/08 08:53:43;;;;;;;;;;;;;;;;;;5071132;28;19908;-73
2022/04/08 08:56:10;;;;;;;;;;;;;;;;;;5072123;28;19916;-74
2022/04/08 08:58:36;;;;;;;;;;;;;;;;;;5072243;28;20248;-72
2022/04/08 09:01:02;;;;;;;;;;;;;;;;;;5072565;28;19966;-73
2022/04/08 09:03:29;;;;;;;;;;;;;;;;;;5071292;28;20318;-73
2022/04/08 09:05:55;;;;;;;;;;;;;;;;;;5072548;28;19961;-73
2022/04/08 09:08:21;;;;;;;;;;;;;;;;;;5072008;28;19912;-73
2022/04/08 09:10:51;;;;;;;;;;;;;;;;;;5072023;28;20012;-73
2022/04/08 09:13:18;;;;;;;;;;;;;;;;;;5072051;28;20266;-73
2022/04/08 09:15:44;;;;;;;;;;;;;;;;;;5072456;28;20049;-73
2022/04/08 09:18:10;;;;;;;;;;;;;;;;;;5070696;28;19944;-73
2022/04/08 09:20:36;;;;;;;;;;;;;;;;;;5072190;28;19919;-73
2022/04/08 09:23:02;;;;;;;;;;;;;;;;;;5071844;28;20007;-73
2022/04/08 09:25:28;;;;;;;;;;;;;;;;;;5072260;28;19997;-73
2022/04/08 09:27:58;;;;;;;;;;;;;;;;;;5070082;28;19916;-73
2022/04/08 09:30:24;;;;;;;;;;;;;;;;;;5070324;28;20357;-72
2022/04/08 09:32:50;;;;;;;;;;;;;;;;;;5070200;28;19962;-73
2022/04/08 09:35:16;;;;;;;;;;;;;;;;;;5072001;28;19920;-73
2022/04/08 09:37:43;;;;;;;;;;;;;;;;;;5070207;28;19954;-72
2022/04/08 09:40:09;;;;;;;;;;;;;;;;;;5071474;28;19912;-72
2022/04/08 09:42:35;;;;;;;;;;;;;;;;;;5071384;28;19969;-73
2022/04/08 09:45:01;;;;;;;;;;;;;;;;;;5071819;28;19916;-72
2022/04/08 09:47:27;;;;;;;;;;;;;;;;;;5071379;28;19913;-73
2022/04/08 09:49:53;;;;;;;;;;;;;;;;;;5071746;28;19924;-72
2022/04/08 09:52:19;;;;;;;;;;;;;;;;;;5071342;28;19912;-72
2022/04/08 09:54:45;;;;;;;;;;;;;;;;;;5070005;28;20389;-72
2022/04/08 09:57:11;;;;;;;;;;;;;;;;;;5069855;28;20003;-73
2022/04/08 09:59:38;;;;;;;;;;;;;;;;;;5069989;28;19922;-73
2022/04/08 10:02:04;;;;;;;;;;;;;;;;;;5071216;28;19913;-73
2022/04/08 10:04:30;;;;;;;;;;;;;;;;;;5071085;28;19928;-73
2022/04/08 10:06:56;;;;;;;;;;;;;;;;;;5071083;28;19924;-72
2022/04/08 10:09:22;;;;;;;;;;;;;;;;;;5071287;28;20007;-73
2022/04/08 10:11:50;;;;;;;;;;;;;;;;;;5070130;28;19952;-74
2022/04/08 10:14:16;;;;;;;;;;;;;;;;;;5069902;28;20364;-72
2022/04/08 10:16:42;;;;;;;;;;;;;;;;;;5070825;28;19967;-72
2022/04/08 10:19:08;;;;;;;;;;;;;;;;;;5071232;28;20364;-72
2022/04/08 10:21:34;;;;;;;;;;;;;;;;;;5069799;28;19912;-72
2022/04/08 10:24:00;;;;;;;;;;;;;;;;;;5071200;28;19921;-72
2022/04/08 10:26:26;;;;;;;;;;;;;;;;;;5071093;28;19913;-72
2022/04/08 10:28:52;;;;;;;;;;;;;;;;;;5069498;28;19924;-73
2022/04/08 10:31:18;;;;;;;;;;;;;;;;;;5070764;28;20011;-73
2022/04/08 10:33:45;;;;;;;;;;;;;;;;;;5070790;28;19908;-73
2022/04/08 10:36:11;;;;;;;;;;;;;;;;;;5071215;28;20313;-73
2022/04/08 10:38:37;;;;;;;;;;;;;;;;;;5070605;28;19951;-74
2022/04/08 10:41:07;;;;;;;;;;;;;;;;;;5070803;28;20046;-72
2022/04/08 10:43:33;;;;;;;;;;;;;;;;;;5070801;28;20585;-73
2022/04/08 10:45:59;;;;;;;;;;;;;;;;;;5070886;28;19920;-74
2022/04/08 10:48:25;;;;;;;;;;;;;;;;;;5070832;28;19905;-73
2022/04/08 10:50:51;;;;;;;;;;;;;;;;;;5069672;28;19943;-74
2022/04/08 10:53:17;;;;;;;;;;;;;;;;;;5070823;28;19916;-74
2022/04/08 10:55:43;;;;;;;;;;;;;;;;;;5071039;28;19912;-74
2022/04/08 10:58:09;;;;;;;;;;;;;;;;;;5071138;28;19974;-74
2022/04/08 11:00:35;;;;;;;;;;;;;;;;;;5071212;28;19932;-74
2022/04/08 11:03:01;;;;;;;;;;;;;;;;;;5070491;28;19924;-74
2022/04/08 11:05:27;;;;;;;;;;;;;;;;;;5070546;28;19959;-74
2022/04/08 11:07:53;;;;;;;;;;;;;;;;;;5070749;28;20020;-74
2022/04/08 11:10:19;;;;;;;;;;;;;;;;;;5070563;28;20232;-73
2022/04/08 11:12:45;;;;;;;;;;;;;;;;;;5070447;28;19913;-72
2022/04/08 11:15:11;;;;;;;;;;;;;;;;;;5070994;28;20002;-74
2022/04/08 11:17:37;;;;;;;;;;;;;;;;;;5070491;28;20375;-74
2022/04/08 11:20:04;;;;;;;;;;;;;;;;;;5070947;28;19993;-75
2022/04/08 11:22:30;;;;;;;;;;;;;;;;;;5070580;28;19920;-75
2022/04/08 11:24:56;;;;;;;;;;;;;;;;;;5070702;28;19958;-74
2022/04/08 11:27:22;;;;;;;;;;;;;;;;;;5071782;28;19916;-73
2022/04/08 11:29:48;;;;;;;;;;;;;;;;;;5072698;28;20374;-73
2022/04/08 11:32:14;;;;;;;;;;;;;;;;;;5074246;28;20009;-74
2022/04/08 11:34:40;;;;;;;;;;;;;;;;;;5072622;28;19908;-73
2022/04/08 11:37:06;;;;;;;;;;;;;;;;;;5072490;28;19916;-73
2022/04/08 11:39:32;;;;;;;;;;;;;;;;;;5074023;28;19908;-73
2022/04/08 11:42:04;;;;;;;;;;;;;;;;;;5072789;28;20005;-72
2022/04/08 11:44:30;;;;;;;;;;;;;;;;;;5073852;28;19994;-71
2022/04/08 11:46:56;;;;;;;;;;;;;;;;;;5072232;28;19956;-72
2022/04/08 11:49:24;;;;;;;;;;;;;;;;;;5072326;28;19951;-71
2022/04/08 11:51:50;;;;;;;;;;;;;;;;;;5073635;28;19940;-71
2022/04/08 11:54:16;;;;;;;;;;;;;;;;;;5073558;28;19912;-71
2022/04/08 11:56:42;;;;;;;;;;;;;;;;;;5073924;28;19924;-71
2022/04/08 11:59:11;;;;;;;;;;;;;;;;;;5073435;28;19917;-72
2022/04/08 12:01:37;;;;;;;;;;;;;;;;;;5073272;28;19921;-71
2022/04/08 12:04:03;;;;;;;;;;;;;;;;;;5073233;28;19947;-72
2022/04/08 12:06:29;;;;;;;;;;;;;;;;;;5071888;28;19924;-71
2022/04/08 12:08:55;;;;;;;;;;;;;;;;;;5073153;28;19913;-71
2022/04/08 12:11:22;;;;;;;;;;;;;;;;;;5073141;28;19983;-71
2022/04/08 12:13:48;;;;;;;;;;;;;;;;;;5073122;28;19913;-70
2022/04/08 12:16:15;;;;;;;;;;;;;;;;;;5073107;28;20417;-71
2022/04/08 12:18:41;;;;;;;;;;;;;;;;;;5072962;28;19909;-71
2022/04/08 12:21:07;;;;;;;;;;;;;;;;;;5071575;28;19919;-71
2022/04/08 12:23:33;;;;;;;;;;;;;;;;;;5072892;28;19920;-72
2022/04/08 12:25:59;;;;;;;;;;;;;;;;;;5072937;28;20011;-72
2022/04/08 12:28:25;;;;;;;;;;;;;;;;;;5072900;28;19916;-72
2022/04/08 12:30:51;;;;;;;;;;;;;;;;;;5071332;28;19958;-72
2022/04/08 12:33:17;;;;;;;;;;;;;;;;;;5072962;28;20280;-71
2022/04/08 12:35:43;;;;;;;;;;;;;;;;;;5073291;28;19913;-72
2022/04/08 12:38:09;;;;;;;;;;;;;;;;;;5071194;28;19919;-72
2022/04/08 12:40:35;;;;;;;;;;;;;;;;;;5073026;28;19966;-72
2022/04/08 12:43:01;;;;;;;;;;;;;;;;;;5072566;28;19915;-71
2022/04/08 12:45:28;;;;;;;;;;;;;;;;;;5072776;28;19913;-73
2022/04/08 12:47:54;;;;;;;;;;;;;;;;;;5072527;28;19916;-72
2022/04/08 12:50:20;;;;;;;;;;;;;;;;;;5072706;28;20326;-73
2022/04/08 12:52:46;;;;;;;;;;;;;;;;;;5072534;28;20000;-72
2022/04/08 12:55:12;;;;;;;;;;;;;;;;;;5072663;28;20030;-71
2022/04/08 12:57:38;;;;;;;;;;;;;;;;;;5072304;28;19948;-71
2022/04/08 13:00:11;;;;;;;;;;;;;;;;;;5072076;28;20148;-73
2022/04/08 13:02:37;;;;;;;;;;;;;;;;;;5072001;28;20366;-72
2022/04/08 13:05:03;;;;;;;;;;;;;;;;;;5070824;28;20019;-71
2022/04/08 13:07:29;;;;;;;;;;;;;;;;;;5072212;28;19913;-73
2022/04/08 13:09:55;;;;;;;;;;;;;;;;;;5072183;28;19916;-72
2022/04/08 13:12:21;;;;;;;;;;;;;;;;;;5072007;28;20396;-72
2022/04/08 13:14:47;;;;;;;;;;;;;;;;;;5070681;28;19916;-72
2022/04/08 13:17:13;;;;;;;;;;;;;;;;;;5072067;28;19912;-72
2022/04/08 13:19:39;;;;;;;;;;;;;;;;;;5072055;28;19916;-70
2022/04/08 13:22:05;;;;;;;;;;;;;;;;;;5071797;28;19913;-72
2022/04/08 13:24:31;;;;;;;;;;;;;;;;;;5071928;28;19924;-73
2022/04/08 13:26:57;;;;;;;;;;;;;;;;;;5070490;28;19919;-74
2022/04/08 13:29:23;;;;;;;;;;;;;;;;;;5072171;28;20317;-75
2022/04/08 13:31:49;;;;;;;;;;;;;;;;;;5070561;28;19912;-74
2022/04/08 13:34:15;;;;;;;;;;;;;;;;;;5071821;28;19919;-74
2022/04/08 13:36:41;;;;;;;;;;;;;;;;;;5070245;28;20291;-72
2022/04/08 13:39:07;;;;;;;;;;;;;;;;;;5070398;28;19920;-74
2022/04/08 13:41:33;;;;;;;;;;;;;;;;;;5070594;28;20385;-73
2022/04/08 13:43:59;;;;;;;;;;;;;;;;;;5071634;28;20013;-71
2022/04/08 13:46:25;;;;;;;;;;;;;;;;;;5070056;28;20046;-72
2022/04/08 13:48:53;;;;;;;;;;;;;;;;;;5071612;28;19908;-72
2022/04/08 13:51:19;;;;;;;;;;;;;;;;;;5069574;28;19916;-72
2022/04/08 13:53:45;;;;;;;;;;;;;;;;;;5071513;28;19914;-71
2022/04/08 13:56:12;;;;;;;;;;;;;;;;;;5071346;28;20284;-72
2022/04/08 13:58:38;;;;;;;;;;;;;;;;;;5071370;28;19909;-71
2022/04/08 14:01:04;;;;;;;;;;;;;;;;;;5071456;28;20331;-71
2022/04/08 14:03:30;;;;;;;;;;;;;;;;;;5071209;28;19924;-71
2022/04/08 14:05:56;;;;;;;;;;;;;;;;;;5071714;28;19912;-71
2022/04/08 14:08:22;;;;;;;;;;;;;;;;;;5071337;28;19966;-71
2022/04/08 14:10:48;;;;;;;;;;;;;;;;;;5071666;28;20276;-72
2022/04/08 14:13:14;;;;;;;;;;;;;;;;;;5071347;28;19913;-72
2022/04/08 14:15:40;;;;;;;;;;;;;;;;;;5071605;28;19912;-73
2022/04/08 14:18:06;;;;;;;;;;;;;;;;;;5071343;28;19917;-72
2022/04/08 14:20:31;;;;;;;;;;;;;;;;;;5071491;28;20274;-72
2022/04/08 14:22:57;;;;;;;;;;;;;;;;;;5070206;28;19912;-70
2022/04/08 14:25:24;;;;;;;;;;;;;;;;;;5071348;28;20352;-74
2022/04/08 14:27:50;;;;;;;;;;;;;;;;;;5070882;28;20280;-73
2022/04/08 14:30:16;;;;;;;;;;;;;;;;;;5071260;28;19919;-72
2022/04/08 14:32:43;;;;;;;;;;;;;;;;;;5070955;28;19919;-73
2022/04/08 14:35:09;;;;;;;;;;;;;;;;;;5069812;28;19916;-73
2022/04/08 14:37:35;;;;;;;;;;;;;;;;;;5069650;28;19942;-73
2022/04/08 14:40:01;;;;;;;;;;;;;;;;;;5071261;28;19916;-73
2022/04/08 14:42:27;;;;;;;;;;;;;;;;;;5069441;28;19920;-72
2022/04/08 14:44:54;;;;;;;;;;;;;;;;;;5069493;28;19920;-72
2022/04/08 14:47:20;;;;;;;;;;;;;;;;;;5069384;28;19917;-72
2022/04/08 14:49:46;;;;;;;;;;;;;;;;;;5069503;28;19968;-72
2022/04/08 14:52:12;;;;;;;;;;;;;;;;;;5069415;28;19917;-73
2022/04/08 14:54:38;;;;;;;;;;;;;;;;;;5069564;28;20282;-72
2022/04/08 14:57:04;;;;;;;;;;;;;;;;;;5070819;28;20276;-73
2022/04/08 14:59:30;;;;;;;;;;;;;;;;;;5070942;28;19912;-72
2022/04/08 15:01:56;;;;;;;;;;;;;;;;;;5071157;28;19924;-72
2022/04/08 15:04:22;;;;;;;;;;;;;;;;;;5074400;28;20337;-73
2022/04/08 15:06:48;;;;;;;;;;;;;;;;;;5073078;28;19952;-73
2022/04/08 15:09:14;;;;;;;;;;;;;;;;;;5073191;28;20371;-74
2022/04/08 15:11:40;;;;;;;;;;;;;;;;;;5074227;28;19995;-72
2022/04/08 15:14:07;;;;;;;;;;;;;;;;;;5074511;28;19912;-72
2022/04/08 15:16:33;;;;;;;;;;;;;;;;;;5074214;28;19942;-73
2022/04/08 15:18:59;;;;;;;;;;;;;;;;;;5073027;28;20003;-73
2022/04/08 15:21:25;;;;;;;;;;;;;;;;;;5072739;28;20363;-72
2022/04/08 15:23:53;;;;;;;;;;;;;;;;;;5074210;28;19912;-73
2022/04/08 15:26:19;;;;;;;;;;;;;;;;;;5072745;28;19919;-72
2022/04/08 15:28:45;;;;;;;;;;;;;;;;;;5072803;28;20386;-72
2022/04/08 15:31:13;;;;;;;;;;;;;;;;;;5072990;28;19912;-72
2022/04/08 15:33:39;;;;;;;;;;;;;;;;;;5073852;28;19913;-72
2022/04/08 15:36:05;;;;;;;;;;;;;;;;;;5074034;28;19995;-72
2022/04/08 15:38:31;;;;;;;;;;;;;;;;;;5073809;28;19948;-72
2022/04/08 15:40:57;;;;;;;;;;;;;;;;;;5072809;28;19913;-73
2022/04/08 15:43:23;;;;;;;;;;;;;;;;;;5073790;28;19999;-73
2022/04/08 15:45:49;;;;;;;;;;;;;;;;;;5074383;28;19924;-72
2022/04/08 15:48:15;;;;;;;;;;;;;;;;;;5073682;28;19916;-72
2022/04/08 15:50:41;;;;;;;;;;;;;;;;;;5074226;28;20360;-72
2022/04/08 15:53:07;;;;;;;;;;;;;;;;;;5073638;28;19960;-73
2022/04/08 15:55:33;;;;;;;;;;;;;;;;;;5074050;28;20320;-73
2022/04/08 15:57:59;;;;;;;;;;;;;;;;;;5073510;28;19916;-73
2022/04/08 16:00:25;;;;;;;;;;;;;;;;;;5072368;28;20003;-73
2022/04/08 16:02:51;;;;;;;;;;;;;;;;;;5073356;28;20353;-73
2022/04/08 16:05:17;;;;;;;;;;;;;;;;;;5073706;28;19927;-73
2022/04/08 16:07:43;;;;;;;;;;;;;;;;;;5073384;28;19935;-73
2022/04/08 16:10:09;;;;;;;;;;;;;;;;;;5073699;28;19913;-74
2022/04/08 16:12:35;;;;;;;;;;;;;;;;;;5072842;28;20288;-73
2022/04/08 16:15:01;;;;;;;;;;;;;;;;;;5073536;28;19913;-73
2022/04/08 16:17:27;;;;;;;;;;;;;;;;;;5071826;28;19942;-73
2022/04/08 16:19:53;;;;;;;;;;;;;;;;;;5073507;28;19913;-73
2022/04/08 16:22:19;;;;;;;;;;;;;;;;;;5071821;28;19916;-73
2022/04/08 16:24:45;;;;;;;;;;;;;;;;;;5072974;28;20018;-73
2022/04/08 16:27:11;;;;;;;;;;;;;;;;;;5071492;28;19991;-72
2022/04/08 16:29:37;;;;;;;;;;;;;;;;;;5071819;28;19916;-72
2022/04/08 16:32:03;;;;;;;;;;;;;;;;;;5072944;28;19920;-72
2022/04/08 16:34:29;;;;;;;;;;;;;;;;;;5072808;28;19912;-72
2022/04/08 16:36:55;;;;;;;;;;;;;;;;;;5071634;28;20280;-73
2022/04/08 16:39:21;;;;;;;;;;;;;;;;;;5072835;28;19916;-73
2022/04/08 16:41:48;;;;;;;;;;;;;;;;;;5072817;28;19912;-73